createdAt,value
2019-02-11T05:02:07.776Z,0
2019-02-11T05:05:38.614Z,0
2019-02-11T05:09:08.462Z,0
2019-02-11T05:12:38.313Z,0
2019-02-11T05:16:08.167Z,0
2019-02-11T05:19:38.021Z,0
2019-02-11T05:23:07.877Z,0
2019-02-11T05:26:37.710Z,0
2019-02-11T05:30:07.573Z,0
2019-02-11T05:33:37.431Z,0
2019-02-11T05:37:07.279Z,0
2019-02-11T05:40:37.116Z,0
2019-02-11T05:44:07.957Z,0
2019-02-11T05:47:37.815Z,0
2019-02-11T05:51:07.654Z,0
2019-02-11T05:54:37.511Z,0
2019-02-11T05:58:07.368Z,0
2019-02-11T06:01:37.250Z,0
2019-02-11T06:05:07.084Z,0
2019-02-11T06:08:36.973Z,0
2019-02-11T06:12:06.791Z,0
2019-02-11T06:15:36.644Z,0
2019-02-11T06:19:06.497Z,0
2019-02-11T06:22:36.361Z,0
2019-02-11T06:26:06.192Z,0
2019-02-11T06:29:36.047Z,0
2019-02-11T06:33:05.905Z,0
2019-02-11T06:36:35.989Z,0
2019-02-11T06:40:05.814Z,0
2019-02-11T06:43:35.674Z,0
2019-02-11T06:47:05.532Z,0
2019-02-11T06:50:35.376Z,0
2019-02-11T06:54:05.239Z,5.625
2019-02-11T06:57:35.094Z,5.625
2019-02-11T07:01:04.923Z,5.625
2019-02-11T07:04:35.773Z,5.625
2019-02-11T07:08:05.633Z,5.625
2019-02-11T07:11:35.471Z,5.625
2019-02-11T07:15:05.335Z,11.25
2019-02-11T07:18:37.182Z,11.25
2019-02-11T07:22:06.018Z,16.875
2019-02-11T07:25:35.990Z,11.25
2019-02-11T07:29:05.849Z,22.5
2019-02-11T07:32:35.709Z,28.125
2019-02-11T07:36:05.562Z,22.5
2019-02-11T07:39:35.430Z,16.875
2019-02-11T07:43:05.280Z,22.5
2019-02-11T07:46:35.122Z,28.125
2019-02-11T07:50:04.978Z,33.75
2019-02-11T07:53:34.850Z,22.5
2019-02-11T07:57:04.723Z,22.5
2019-02-11T08:00:34.583Z,56.25
2019-02-11T08:04:04.581Z,67.5
2019-02-11T08:07:35.410Z,78.75
2019-02-11T08:11:05.266Z,106.875
2019-02-11T08:14:35.129Z,118.125
2019-02-11T08:18:04.994Z,129.375
2019-02-11T08:21:34.836Z,123.75
2019-02-11T08:25:04.772Z,151.875
2019-02-11T08:28:34.630Z,123.75
2019-02-11T08:32:04.472Z,140.625
2019-02-11T08:35:34.331Z,118.125
2019-02-11T08:39:05.203Z,90
2019-02-11T08:42:35.065Z,78.75
2019-02-11T08:46:05.405Z,78.75
2019-02-11T08:49:34.884Z,84.375
2019-02-11T08:53:06.512Z,90
2019-02-11T08:56:36.910Z,90
2019-02-11T09:00:07.287Z,106.875
2019-02-11T09:03:37.726Z,112.5
2019-02-11T09:07:08.989Z,135
2019-02-11T09:10:40.341Z,146.25
2019-02-11T09:14:10.779Z,140.625
2019-02-11T09:17:41.158Z,118.125
2019-02-11T09:21:12.394Z,118.125
2019-02-11T09:24:44.324Z,118.125
2019-02-11T09:28:14.777Z,129.375
2019-02-11T09:31:46.189Z,151.875
2019-02-11T09:35:18.579Z,157.5
2019-02-11T09:38:49.844Z,151.875
2019-02-11T09:42:21.201Z,151.875
2019-02-11T09:45:51.482Z,151.875
2019-02-11T09:49:22.456Z,140.625
2019-02-11T09:52:53.672Z,118.125
2019-02-11T09:56:24.105Z,151.875
2019-02-11T09:59:54.446Z,106.875
2019-02-11T10:03:24.816Z,146.25
2019-02-11T10:06:56.120Z,112.5
2019-02-11T10:10:26.512Z,146.25
2019-02-11T10:13:56.886Z,151.875
2019-02-11T10:17:31.228Z,135
2019-02-11T10:21:01.589Z,151.875
2019-02-11T10:24:32.048Z,140.625
2019-02-11T10:28:02.701Z,135
2019-02-11T10:31:35.133Z,151.875
2019-02-11T10:35:05.666Z,163.125
2019-02-11T10:38:38.824Z,174.375
2019-02-11T10:42:08.892Z,112.5
2019-02-11T10:45:40.155Z,135
2019-02-11T10:49:10.668Z,129.375
2019-02-11T10:52:40.984Z,174.375
2019-02-11T10:56:11.378Z,213.75
2019-02-11T10:59:44.199Z,174.375
2019-02-11T11:03:15.352Z,129.375
2019-02-11T11:06:45.781Z,112.5
2019-02-11T11:10:16.630Z,118.125
2019-02-11T11:13:47.086Z,135
2019-02-11T11:17:17.414Z,123.75
2019-02-11T11:20:47.774Z,118.125
2019-02-11T11:24:18.238Z,129.375
2019-02-11T11:27:48.610Z,112.5
2019-02-11T11:31:18.963Z,118.125
2019-02-11T11:34:49.344Z,129.375
2019-02-11T11:38:19.734Z,118.125
2019-02-11T11:41:50.028Z,112.5
2019-02-11T11:45:20.422Z,112.5
2019-02-11T11:48:50.802Z,112.5
2019-02-11T11:52:21.165Z,106.875
2019-02-11T11:55:51.593Z,95.625
2019-02-11T11:59:22.008Z,84.375
2019-02-11T12:03:02.408Z,112.5
2019-02-11T12:06:28.608Z,146.25
2019-02-11T12:09:59.018Z,286.875
2019-02-11T12:13:29.033Z,320.625
2019-02-11T12:17:03.353Z,348.75
2019-02-11T12:20:34.773Z,264.375
2019-02-11T12:24:04.622Z,264.375
2019-02-11T12:27:34.517Z,213.75
2019-02-11T12:31:04.349Z,146.25
2019-02-11T12:34:34.229Z,118.125
2019-02-11T12:38:04.125Z,95.625
2019-02-11T12:41:33.987Z,78.75
2019-02-11T12:45:03.857Z,90
2019-02-11T12:48:34.707Z,78.75
2019-02-11T12:52:04.561Z,84.375
2019-02-11T12:55:34.443Z,95.625
2019-02-11T12:59:04.310Z,84.375
2019-02-11T13:02:34.173Z,84.375
2019-02-11T13:06:05.077Z,84.375
2019-02-11T13:09:34.944Z,78.75
2019-02-11T13:13:07.326Z,67.5
2019-02-11T13:16:36.672Z,78.75
2019-02-11T13:20:11.759Z,90
2019-02-11T13:23:40.400Z,67.5
2019-02-11T13:27:10.361Z,90
2019-02-11T13:30:41.890Z,73.125
2019-02-11T13:34:13.636Z,90
2019-02-11T13:37:44.211Z,106.875
2019-02-11T13:41:16.054Z,84.375
2019-02-11T13:44:47.877Z,95.625
2019-02-11T13:48:17.903Z,90
2019-02-11T13:51:48.685Z,123.75
2019-02-11T13:55:18.661Z,112.5
2019-02-11T13:58:52.098Z,101.25
2019-02-11T14:02:20.654Z,84.375
2019-02-11T14:05:50.905Z,106.875
2019-02-11T14:09:20.993Z,106.875
2019-02-11T14:12:51.941Z,112.5
2019-02-11T14:16:22.222Z,112.5
2019-02-11T14:19:52.093Z,112.5
2019-02-11T14:23:21.955Z,146.25
2019-02-11T14:26:51.881Z,151.875
2019-02-11T14:30:21.769Z,140.625
2019-02-11T14:33:52.673Z,202.5
2019-02-11T14:37:22.514Z,360
2019-02-11T14:40:52.540Z,298.125
2019-02-11T14:44:22.396Z,236.25
2019-02-11T14:47:52.265Z,196.875
2019-02-11T14:51:22.143Z,241.875
2019-02-11T14:54:51.992Z,191.25
2019-02-11T14:58:21.842Z,174.375
2019-02-11T15:01:51.745Z,163.125
2019-02-11T15:05:21.615Z,151.875
2019-02-11T15:08:52.512Z,135
2019-02-11T15:12:22.467Z,118.125
2019-02-11T15:15:52.335Z,101.25
2019-02-11T15:19:22.234Z,90
2019-02-11T15:22:52.187Z,78.75
2019-02-11T15:26:22.138Z,73.125
2019-02-11T15:29:22.503Z,67.5
2019-02-11T15:32:50.476Z,61.875
2019-02-11T15:36:18.475Z,56.25
2019-02-11T15:39:47.351Z,50.625
2019-02-11T15:43:15.208Z,45
2019-02-11T15:46:43.112Z,33.75
2019-02-11T15:50:11.180Z,28.125
2019-02-11T15:53:39.074Z,22.5
2019-02-11T15:57:08.473Z,22.5
2019-02-11T16:00:36.329Z,16.875
2019-02-11T16:04:17.858Z,11.25
2019-02-11T16:07:46.780Z,5.625
2019-02-11T16:11:15.677Z,5.625
2019-02-11T16:14:43.554Z,5.625
2019-02-11T16:18:11.515Z,0
2019-02-11T16:21:39.367Z,0
2019-02-11T16:25:07.260Z,0
2019-02-11T16:28:35.125Z,0
2019-02-11T16:32:04.038Z,0
2019-02-11T16:35:32.040Z,0
2019-02-11T16:38:59.920Z,0
2019-02-11T16:42:27.836Z,0
2019-02-11T16:45:56.497Z,0
2019-02-11T16:49:25.415Z,0
2019-02-11T16:52:53.274Z,0
2019-02-11T16:56:21.169Z,0
2019-02-11T16:59:49.082Z,0
2019-02-11T17:03:17.988Z,0
2019-02-11T17:06:45.897Z,0
2019-02-11T17:10:13.789Z,0
2019-02-11T17:13:41.734Z,0
2019-02-11T17:17:09.738Z,0
2019-02-11T17:20:37.676Z,0
2019-02-11T17:24:05.601Z,0
2019-02-11T17:27:34.448Z,0
2019-02-11T17:31:03.305Z,0
2019-02-11T17:34:31.238Z,0
2019-02-11T17:37:59.355Z,0
2019-02-11T17:41:27.393Z,0
2019-02-11T17:44:55.315Z,0
2019-02-11T17:48:23.251Z,0
2019-02-11T17:51:52.089Z,0
2019-02-11T17:55:20.197Z,0
2019-02-11T17:58:48.020Z,0
2019-02-11T18:02:15.960Z,0
2019-02-11T18:05:43.846Z,0
2019-02-11T18:09:11.714Z,0
2019-02-11T18:12:39.682Z,0
2019-02-11T18:16:07.597Z,0
2019-02-11T18:19:35.504Z,0
2019-02-11T18:23:03.421Z,0
2019-02-11T18:26:31.386Z,0
2019-02-11T18:30:00.305Z,0
2019-02-11T18:33:28.200Z,0
2019-02-11T18:36:56.101Z,0
2019-02-11T18:40:23.999Z,0
2019-02-11T18:43:51.904Z,0
2019-02-11T18:47:19.801Z,0
2019-02-11T18:50:47.695Z,0
2019-02-11T18:54:15.595Z,0
2019-02-11T18:57:43.530Z,0
2019-02-11T19:01:11.453Z,0
2019-02-11T19:04:39.302Z,0
2019-02-11T19:08:08.208Z,0
2019-02-11T19:11:37.106Z,0
2019-02-11T19:15:04.973Z,0
2019-02-11T19:18:32.877Z,0
2019-02-11T19:22:00.809Z,0
2019-02-11T19:25:28.713Z,0
2019-02-11T19:28:56.578Z,0
2019-02-11T19:32:24.441Z,0
2019-02-11T19:35:52.355Z,0
2019-02-11T19:39:20.233Z,0
2019-02-11T19:42:48.121Z,0
2019-02-11T19:46:16.015Z,0
2019-02-11T19:49:51.373Z,0
2019-02-11T19:53:14.998Z,0
2019-02-11T19:56:44.075Z,0
2019-02-11T20:00:13.035Z,0
2019-02-11T20:03:41.203Z,0
2019-02-11T20:07:09.202Z,0
2019-02-11T20:10:37.129Z,0
2019-02-11T20:14:06.126Z,0
2019-02-11T20:17:34.145Z,0
2019-02-11T20:21:02.054Z,0
2019-02-11T20:24:30.043Z,0
2019-02-11T20:27:57.992Z,0
2019-02-11T20:31:27.145Z,0
2019-02-11T20:34:55.109Z,0
2019-02-11T20:38:23.846Z,0
2019-02-11T20:41:51.810Z,0
2019-02-11T20:45:20.116Z,0
2019-02-11T20:48:48.074Z,0
2019-02-11T20:52:16.193Z,0
2019-02-11T20:55:46.025Z,0
2019-02-11T20:59:14.016Z,0
2019-02-11T21:02:43.021Z,0
2019-02-11T21:06:12.024Z,0
2019-02-11T21:09:40.719Z,0
2019-02-11T21:13:08.768Z,0
2019-02-11T21:16:38.230Z,0
2019-02-11T21:20:06.196Z,0
2019-02-11T21:23:34.266Z,0
2019-02-11T21:27:02.240Z,0
2019-02-11T21:30:30.351Z,0
2019-02-11T21:33:59.222Z,0
2019-02-11T21:37:27.839Z,0
2019-02-11T21:40:55.894Z,0
2019-02-11T21:44:24.844Z,0
2019-02-11T21:47:54.254Z,0
2019-02-11T21:51:22.467Z,0
2019-02-11T21:54:50.354Z,0
2019-02-11T21:58:18.338Z,0
2019-02-11T22:01:46.602Z,0
2019-02-11T22:05:14.649Z,0
2019-02-11T22:08:43.554Z,0
2019-02-11T22:12:11.458Z,0
2019-02-11T22:15:39.566Z,0
2019-02-11T22:19:07.554Z,0
2019-02-11T22:22:36.471Z,0
2019-02-11T22:26:05.429Z,0
2019-02-11T22:29:33.381Z,0
2019-02-11T22:33:01.329Z,0
2019-02-11T22:36:29.255Z,0
2019-02-11T22:39:57.261Z,0
2019-02-11T22:43:25.152Z,0
2019-02-11T22:46:53.061Z,0
2019-02-11T22:50:20.981Z,0
2019-02-11T22:53:48.932Z,0
2019-02-11T22:57:16.856Z,0
